sensor_id;sensor_type;location;lat;lon;timestamp;temperature;humidity
32476;DHT22;18929;48.008;10.882;2023-11-19T00:00:31;9.00;99.90
32476;DHT22;18929;48.008;10.882;2023-11-19T00:02:58;8.80;99.90
32476;DHT22;18929;48.008;10.882;2023-11-19T00:05:25;8.90;99.90
32476;DHT22;18929;48.008;10.882;2023-11-19T00:07:53;9.00;99.90
32476;DHT22;18929;48.008;10.882;2023-11-19T00:10:20;9.00;99.90
32476;DHT22;18929;48.008;10.882;2023-11-19T00:12:47;8.90;99.90
32476;DHT22;18929;48.008;10.882;2023-11-19T00:15:14;9.00;99.90
32476;DHT22;18929;48.008;10.882;2023-11-19T00:17:43;9.10;99.90
32476;DHT22;18929;48.008;10.882;2023-11-19T00:20:11;9.20;99.90
32476;DHT22;18929;48.008;10.882;2023-11-19T00:22:39;9.20;99.90
32476;DHT22;18929;48.008;10.882;2023-11-19T00:25:06;9.20;99.90
32476;DHT22;18929;48.008;10.882;2023-11-19T00:30:36;9.00;99.90
32476;DHT22;18929;48.008;10.882;2023-11-19T00:33:04;8.40;99.90
32476;DHT22;18929;48.008;10.882;2023-11-19T00:35:31;8.50;99.90
32476;DHT22;18929;48.008;10.882;2023-11-19T00:37:58;8.20;99.90
32476;DHT22;18929;48.008;10.882;2023-11-19T00:40:25;8.10;99.90
32476;DHT22;18929;48.008;10.882;2023-11-19T00:42:52;7.90;99.90
32476;DHT22;18929;48.008;10.882;2023-11-19T00:45:19;7.80;99.90
32476;DHT22;18929;48.008;10.882;2023-11-19T00:47:46;7.90;99.90
32476;DHT22;18929;48.008;10.882;2023-11-19T00:50:14;7.80;99.90
32476;DHT22;18929;48.008;10.882;2023-11-19T00:52:41;8.20;99.90
32476;DHT22;18929;48.008;10.882;2023-11-19T00:55:14;8.40;99.90
32476;DHT22;18929;48.008;10.882;2023-11-19T00:57:40;8.30;99.90
32476;DHT22;18929;48.008;10.882;2023-11-19T01:00:08;8.40;99.90
32476;DHT22;18929;48.008;10.882;2023-11-19T01:02:43;8.30;99.90
32476;DHT22;18929;48.008;10.882;2023-11-19T01:05:10;8.10;99.90
32476;DHT22;18929;48.008;10.882;2023-11-19T01:07:41;8.50;99.90
32476;DHT22;18929;48.008;10.882;2023-11-19T01:10:08;8.70;99.90
32476;DHT22;18929;48.008;10.882;2023-11-19T01:12:35;8.90;99.90
32476;DHT22;18929;48.008;10.882;2023-11-19T01:15:03;8.90;99.90
32476;DHT22;18929;48.008;10.882;2023-11-19T01:17:30;8.90;99.90
32476;DHT22;18929;48.008;10.882;2023-11-19T01:19:58;8.70;99.90
32476;DHT22;18929;48.008;10.882;2023-11-19T01:22:24;8.40;99.90
32476;DHT22;18929;48.008;10.882;2023-11-19T01:27:25;8.50;99.90
32476;DHT22;18929;48.008;10.882;2023-11-19T01:29:51;8.40;99.90
32476;DHT22;18929;48.008;10.882;2023-11-19T01:32:18;8.90;99.90
32476;DHT22;18929;48.008;10.882;2023-11-19T01:34:45;8.30;99.90
32476;DHT22;18929;48.008;10.882;2023-11-19T01:37:12;8.70;99.90
32476;DHT22;18929;48.008;10.882;2023-11-19T01:39:39;8.20;99.90
32476;DHT22;18929;48.008;10.882;2023-11-19T01:42:06;8.50;99.90
32476;DHT22;18929;48.008;10.882;2023-11-19T01:44:35;8.80;99.90
32476;DHT22;18929;48.008;10.882;2023-11-19T01:47:01;8.40;99.90
32476;DHT22;18929;48.008;10.882;2023-11-19T01:49:29;8.80;99.90
32476;DHT22;18929;48.008;10.882;2023-11-19T01:52:05;9.00;99.90
32476;DHT22;18929;48.008;10.882;2023-11-19T01:54:33;8.50;99.90
32476;DHT22;18929;48.008;10.882;2023-11-19T01:57:00;8.00;99.90
32476;DHT22;18929;48.008;10.882;2023-11-19T01:59:27;8.20;99.90
32476;DHT22;18929;48.008;10.882;2023-11-19T02:01:55;8.50;99.90
32476;DHT22;18929;48.008;10.882;2023-11-19T02:04:23;8.60;99.90
32476;DHT22;18929;48.008;10.882;2023-11-19T02:06:50;8.40;99.90
32476;DHT22;18929;48.008;10.882;2023-11-19T02:09:19;8.40;99.90
32476;DHT22;18929;48.008;10.882;2023-11-19T02:11:46;8.50;99.90
32476;DHT22;18929;48.008;10.882;2023-11-19T02:14:16;8.50;99.90
32476;DHT22;18929;48.008;10.882;2023-11-19T02:16:43;8.30;99.90
32476;DHT22;18929;48.008;10.882;2023-11-19T02:19:11;8.30;99.90
32476;DHT22;18929;48.008;10.882;2023-11-19T02:21:38;8.50;99.90
32476;DHT22;18929;48.008;10.882;2023-11-19T02:24:07;8.40;99.90
32476;DHT22;18929;48.008;10.882;2023-11-19T02:26:36;8.70;99.90
32476;DHT22;18929;48.008;10.882;2023-11-19T02:29:06;8.60;99.90
32476;DHT22;18929;48.008;10.882;2023-11-19T02:31:33;8.60;99.90
32476;DHT22;18929;48.008;10.882;2023-11-19T02:34:00;8.60;99.90
32476;DHT22;18929;48.008;10.882;2023-11-19T02:36:27;9.00;99.90
32476;DHT22;18929;48.008;10.882;2023-11-19T02:38:54;8.90;99.90
32476;DHT22;18929;48.008;10.882;2023-11-19T02:41:21;8.50;99.90
32476;DHT22;18929;48.008;10.882;2023-11-19T02:43:48;8.90;99.90
32476;DHT22;18929;48.008;10.882;2023-11-19T02:46:16;9.00;99.90
32476;DHT22;18929;48.008;10.882;2023-11-19T02:48:43;9.00;99.90
32476;DHT22;18929;48.008;10.882;2023-11-19T02:51:11;8.90;99.90
32476;DHT22;18929;48.008;10.882;2023-11-19T02:53:38;9.40;99.90
32476;DHT22;18929;48.008;10.882;2023-11-19T02:56:06;9.30;99.90
32476;DHT22;18929;48.008;10.882;2023-11-19T02:58:42;9.00;99.90
32476;DHT22;18929;48.008;10.882;2023-11-19T03:01:10;8.70;99.90
32476;DHT22;18929;48.008;10.882;2023-11-19T03:03:46;9.10;99.90
32476;DHT22;18929;48.008;10.882;2023-11-19T03:06:14;8.70;99.90
32476;DHT22;18929;48.008;10.882;2023-11-19T03:08:41;8.90;99.90
32476;DHT22;18929;48.008;10.882;2023-11-19T03:11:08;9.00;99.90
32476;DHT22;18929;48.008;10.882;2023-11-19T03:13:35;8.80;99.90
32476;DHT22;18929;48.008;10.882;2023-11-19T03:16:01;8.70;99.90
32476;DHT22;18929;48.008;10.882;2023-11-19T03:18:28;8.60;99.90
32476;DHT22;18929;48.008;10.882;2023-11-19T03:20:56;9.00;99.90
32476;DHT22;18929;48.008;10.882;2023-11-19T03:23:24;9.00;99.90
32476;DHT22;18929;48.008;10.882;2023-11-19T03:25:53;8.80;99.90
32476;DHT22;18929;48.008;10.882;2023-11-19T03:28:20;9.20;99.90
32476;DHT22;18929;48.008;10.882;2023-11-19T03:30:46;9.00;99.90
32476;DHT22;18929;48.008;10.882;2023-11-19T03:33:13;8.90;99.90
32476;DHT22;18929;48.008;10.882;2023-11-19T03:35:40;8.90;99.90
32476;DHT22;18929;48.008;10.882;2023-11-19T03:38:08;9.00;99.90
32476;DHT22;18929;48.008;10.882;2023-11-19T03:40:35;9.00;99.90
32476;DHT22;18929;48.008;10.882;2023-11-19T03:43:03;9.10;99.90
32476;DHT22;18929;48.008;10.882;2023-11-19T03:45:30;9.10;99.90
32476;DHT22;18929;48.008;10.882;2023-11-19T03:47:57;8.70;99.90
32476;DHT22;18929;48.008;10.882;2023-11-19T03:50:24;8.90;99.90
32476;DHT22;18929;48.008;10.882;2023-11-19T03:52:51;8.80;99.90
32476;DHT22;18929;48.008;10.882;2023-11-19T03:55:19;9.30;99.90
32476;DHT22;18929;48.008;10.882;2023-11-19T03:57:46;9.30;99.90
32476;DHT22;18929;48.008;10.882;2023-11-19T04:00:17;9.00;99.90
32476;DHT22;18929;48.008;10.882;2023-11-19T04:02:46;9.30;99.90
32476;DHT22;18929;48.008;10.882;2023-11-19T04:05:13;9.70;99.90
32476;DHT22;18929;48.008;10.882;2023-11-19T04:07:40;9.50;99.90
32476;DHT22;18929;48.008;10.882;2023-11-19T04:10:07;9.40;99.90
32476;DHT22;18929;48.008;10.882;2023-11-19T04:12:36;9.30;99.90
32476;DHT22;18929;48.008;10.882;2023-11-19T04:15:03;9.50;99.90
32476;DHT22;18929;48.008;10.882;2023-11-19T04:17:30;9.20;99.90
32476;DHT22;18929;48.008;10.882;2023-11-19T04:19:56;9.20;99.90
32476;DHT22;18929;48.008;10.882;2023-11-19T04:22:24;9.50;99.90
32476;DHT22;18929;48.008;10.882;2023-11-19T04:24:51;9.60;99.90
32476;DHT22;18929;48.008;10.882;2023-11-19T04:27:18;9.30;99.90
32476;DHT22;18929;48.008;10.882;2023-11-19T04:30:01;9.10;99.90
32476;DHT22;18929;48.008;10.882;2023-11-19T04:32:29;9.40;99.90
32476;DHT22;18929;48.008;10.882;2023-11-19T04:34:56;9.40;99.90
32476;DHT22;18929;48.008;10.882;2023-11-19T04:37:23;9.30;99.90
32476;DHT22;18929;48.008;10.882;2023-11-19T04:39:50;9.10;99.90
32476;DHT22;18929;48.008;10.882;2023-11-19T04:42:16;9.20;99.90
32476;DHT22;18929;48.008;10.882;2023-11-19T04:44:43;9.20;99.90
32476;DHT22;18929;48.008;10.882;2023-11-19T04:47:11;9.20;99.90
32476;DHT22;18929;48.008;10.882;2023-11-19T04:49:39;9.40;99.90
32476;DHT22;18929;48.008;10.882;2023-11-19T04:52:08;9.20;99.90
32476;DHT22;18929;48.008;10.882;2023-11-19T04:54:35;9.20;99.90
32476;DHT22;18929;48.008;10.882;2023-11-19T04:57:01;9.30;99.90
32476;DHT22;18929;48.008;10.882;2023-11-19T04:59:28;9.60;99.90
32476;DHT22;18929;48.008;10.882;2023-11-19T05:01:55;9.50;99.90
32476;DHT22;18929;48.008;10.882;2023-11-19T05:04:24;9.60;99.90
32476;DHT22;18929;48.008;10.882;2023-11-19T05:06:51;9.60;99.90
32476;DHT22;18929;48.008;10.882;2023-11-19T05:09:18;9.60;99.90
32476;DHT22;18929;48.008;10.882;2023-11-19T05:11:45;9.50;99.90
32476;DHT22;18929;48.008;10.882;2023-11-19T05:14:12;9.30;99.90
32476;DHT22;18929;48.008;10.882;2023-11-19T05:16:39;9.30;99.90
32476;DHT22;18929;48.008;10.882;2023-11-19T05:19:06;9.30;99.90
32476;DHT22;18929;48.008;10.882;2023-11-19T05:21:34;9.40;99.90
32476;DHT22;18929;48.008;10.882;2023-11-19T05:24:01;9.40;99.90
32476;DHT22;18929;48.008;10.882;2023-11-19T05:29:06;9.70;99.90
32476;DHT22;18929;48.008;10.882;2023-11-19T05:31:33;9.60;99.90
32476;DHT22;18929;48.008;10.882;2023-11-19T05:34:00;9.50;99.90
32476;DHT22;18929;48.008;10.882;2023-11-19T05:36:27;9.60;99.90
32476;DHT22;18929;48.008;10.882;2023-11-19T05:38:56;9.50;99.90
32476;DHT22;18929;48.008;10.882;2023-11-19T05:41:22;9.40;99.90
32476;DHT22;18929;48.008;10.882;2023-11-19T05:43:49;9.70;99.90
32476;DHT22;18929;48.008;10.882;2023-11-19T05:46:17;9.70;99.90
32476;DHT22;18929;48.008;10.882;2023-11-19T05:48:44;9.80;99.90
32476;DHT22;18929;48.008;10.882;2023-11-19T05:51:12;9.60;99.90
32476;DHT22;18929;48.008;10.882;2023-11-19T05:53:39;9.80;99.90
32476;DHT22;18929;48.008;10.882;2023-11-19T05:56:08;9.50;99.90
32476;DHT22;18929;48.008;10.882;2023-11-19T05:58:35;9.60;99.90
32476;DHT22;18929;48.008;10.882;2023-11-19T06:01:02;9.40;99.90
32476;DHT22;18929;48.008;10.882;2023-11-19T06:03:32;9.50;99.90
32476;DHT22;18929;48.008;10.882;2023-11-19T06:05:59;9.60;99.90
32476;DHT22;18929;48.008;10.882;2023-11-19T06:08:26;9.80;99.90
32476;DHT22;18929;48.008;10.882;2023-11-19T06:10:53;9.70;99.90
32476;DHT22;18929;48.008;10.882;2023-11-19T06:13:21;9.70;99.90
32476;DHT22;18929;48.008;10.882;2023-11-19T06:15:48;9.70;99.90
32476;DHT22;18929;48.008;10.882;2023-11-19T06:18:16;9.90;99.90
32476;DHT22;18929;48.008;10.882;2023-11-19T06:20:45;9.70;99.90
32476;DHT22;18929;48.008;10.882;2023-11-19T06:23:15;9.70;99.90
32476;DHT22;18929;48.008;10.882;2023-11-19T06:25:42;9.60;99.90
32476;DHT22;18929;48.008;10.882;2023-11-19T06:28:08;9.70;99.90
32476;DHT22;18929;48.008;10.882;2023-11-19T06:30:37;9.80;99.90
32476;DHT22;18929;48.008;10.882;2023-11-19T06:33:03;9.90;99.90
32476;DHT22;18929;48.008;10.882;2023-11-19T06:35:30;9.70;99.90
32476;DHT22;18929;48.008;10.882;2023-11-19T06:38:01;9.70;99.90
32476;DHT22;18929;48.008;10.882;2023-11-19T06:40:28;10.00;99.90
32476;DHT22;18929;48.008;10.882;2023-11-19T06:42:55;10.00;99.90
32476;DHT22;18929;48.008;10.882;2023-11-19T06:45:22;10.00;99.90
32476;DHT22;18929;48.008;10.882;2023-11-19T06:47:51;10.00;99.90
32476;DHT22;18929;48.008;10.882;2023-11-19T06:50:17;9.80;99.90
32476;DHT22;18929;48.008;10.882;2023-11-19T06:52:44;10.00;99.90
32476;DHT22;18929;48.008;10.882;2023-11-19T06:55:11;10.00;99.90
32476;DHT22;18929;48.008;10.882;2023-11-19T06:57:38;9.90;99.90
32476;DHT22;18929;48.008;10.882;2023-11-19T07:00:06;10.00;99.90
32476;DHT22;18929;48.008;10.882;2023-11-19T07:02:34;9.90;99.90
32476;DHT22;18929;48.008;10.882;2023-11-19T07:05:02;9.70;99.90
32476;DHT22;18929;48.008;10.882;2023-11-19T07:07:30;10.10;99.90
32476;DHT22;18929;48.008;10.882;2023-11-19T07:09:58;10.00;99.90
32476;DHT22;18929;48.008;10.882;2023-11-19T07:12:25;10.20;99.90
32476;DHT22;18929;48.008;10.882;2023-11-19T07:14:52;10.50;99.90
32476;DHT22;18929;48.008;10.882;2023-11-19T07:17:20;10.20;99.90
32476;DHT22;18929;48.008;10.882;2023-11-19T07:19:49;10.10;99.90
32476;DHT22;18929;48.008;10.882;2023-11-19T07:22:17;10.10;99.90
32476;DHT22;18929;48.008;10.882;2023-11-19T07:27:30;10.40;99.90
32476;DHT22;18929;48.008;10.882;2023-11-19T07:29:57;10.30;99.90
32476;DHT22;18929;48.008;10.882;2023-11-19T07:32:23;10.20;99.90
32476;DHT22;18929;48.008;10.882;2023-11-19T07:34:50;10.30;99.90
32476;DHT22;18929;48.008;10.882;2023-11-19T07:37:18;10.20;99.90
32476;DHT22;18929;48.008;10.882;2023-11-19T07:39:45;10.20;99.90
32476;DHT22;18929;48.008;10.882;2023-11-19T07:42:12;10.10;99.90
32476;DHT22;18929;48.008;10.882;2023-11-19T07:44:39;10.10;99.90
32476;DHT22;18929;48.008;10.882;2023-11-19T07:47:08;10.30;99.90
32476;DHT22;18929;48.008;10.882;2023-11-19T07:49:34;10.30;99.90
32476;DHT22;18929;48.008;10.882;2023-11-19T07:52:01;10.00;99.90
32476;DHT22;18929;48.008;10.882;2023-11-19T07:54:29;10.30;99.90
32476;DHT22;18929;48.008;10.882;2023-11-19T07:56:56;10.30;99.90
32476;DHT22;18929;48.008;10.882;2023-11-19T07:59:23;10.40;99.90
32476;DHT22;18929;48.008;10.882;2023-11-19T08:01:50;10.20;99.90
32476;DHT22;18929;48.008;10.882;2023-11-19T08:04:17;10.30;99.90
32476;DHT22;18929;48.008;10.882;2023-11-19T08:06:45;10.10;99.90
32476;DHT22;18929;48.008;10.882;2023-11-19T08:09:12;10.10;99.90
32476;DHT22;18929;48.008;10.882;2023-11-19T08:11:40;10.30;99.90
32476;DHT22;18929;48.008;10.882;2023-11-19T08:16:38;10.20;99.90
32476;DHT22;18929;48.008;10.882;2023-11-19T08:19:21;10.50;99.90
32476;DHT22;18929;48.008;10.882;2023-11-19T08:21:54;10.50;99.90
32476;DHT22;18929;48.008;10.882;2023-11-19T08:24:21;10.30;99.90
32476;DHT22;18929;48.008;10.882;2023-11-19T08:27:02;10.40;99.90
32476;DHT22;18929;48.008;10.882;2023-11-19T08:29:29;10.80;99.90
32476;DHT22;18929;48.008;10.882;2023-11-19T08:31:55;10.40;99.90
32476;DHT22;18929;48.008;10.882;2023-11-19T08:40:06;10.40;99.90
32476;DHT22;18929;48.008;10.882;2023-11-19T08:42:35;10.60;99.90
32476;DHT22;18929;48.008;10.882;2023-11-19T08:45:01;10.80;99.90
32476;DHT22;18929;48.008;10.882;2023-11-19T08:47:30;10.60;99.90
32476;DHT22;18929;48.008;10.882;2023-11-19T08:49:57;10.40;99.90
32476;DHT22;18929;48.008;10.882;2023-11-19T08:52:24;10.60;99.90
32476;DHT22;18929;48.008;10.882;2023-11-19T08:57:41;10.50;99.90
32476;DHT22;18929;48.008;10.882;2023-11-19T09:00:08;10.40;99.90
32476;DHT22;18929;48.008;10.882;2023-11-19T09:02:35;10.70;99.90
32476;DHT22;18929;48.008;10.882;2023-11-19T09:05:02;10.70;99.90
32476;DHT22;18929;48.008;10.882;2023-11-19T09:07:29;10.60;99.90
32476;DHT22;18929;48.008;10.882;2023-11-19T09:09:56;10.80;99.90
32476;DHT22;18929;48.008;10.882;2023-11-19T09:12:23;10.40;99.90
32476;DHT22;18929;48.008;10.882;2023-11-19T09:14:51;10.50;99.90
32476;DHT22;18929;48.008;10.882;2023-11-19T09:17:18;10.80;99.90
32476;DHT22;18929;48.008;10.882;2023-11-19T09:19:48;10.80;99.90
32476;DHT22;18929;48.008;10.882;2023-11-19T09:22:18;11.10;99.90
32476;DHT22;18929;48.008;10.882;2023-11-19T09:25:00;11.00;99.90
32476;DHT22;18929;48.008;10.882;2023-11-19T09:27:38;10.90;99.90
32476;DHT22;18929;48.008;10.882;2023-11-19T09:30:22;11.10;99.90
32476;DHT22;18929;48.008;10.882;2023-11-19T09:32:49;11.20;99.90
32476;DHT22;18929;48.008;10.882;2023-11-19T09:35:45;10.80;99.90
32476;DHT22;18929;48.008;10.882;2023-11-19T09:41:57;11.10;99.90
32476;DHT22;18929;48.008;10.882;2023-11-19T09:44:43;11.10;99.90
32476;DHT22;18929;48.008;10.882;2023-11-19T09:47:18;10.90;99.90
32476;DHT22;18929;48.008;10.882;2023-11-19T09:49:45;10.70;99.90
32476;DHT22;18929;48.008;10.882;2023-11-19T09:52:13;10.80;99.90
32476;DHT22;18929;48.008;10.882;2023-11-19T09:55:50;10.90;99.90
32476;DHT22;18929;48.008;10.882;2023-11-19T09:58:21;11.10;99.90
32476;DHT22;18929;48.008;10.882;2023-11-19T10:04:08;11.20;99.90
32476;DHT22;18929;48.008;10.882;2023-11-19T10:06:55;10.90;99.90
32476;DHT22;18929;48.008;10.882;2023-11-19T10:13:09;11.40;99.90
32476;DHT22;18929;48.008;10.882;2023-11-19T10:15:37;11.30;99.90
32476;DHT22;18929;48.008;10.882;2023-11-19T10:18:21;11.10;99.90
32476;DHT22;18929;48.008;10.882;2023-11-19T10:21:07;11.00;99.90
32476;DHT22;18929;48.008;10.882;2023-11-19T10:26:27;11.20;99.90
32476;DHT22;18929;48.008;10.882;2023-11-19T10:28:59;11.20;99.90
32476;DHT22;18929;48.008;10.882;2023-11-19T10:31:26;11.10;99.90
32476;DHT22;18929;48.008;10.882;2023-11-19T10:33:56;11.20;99.90
32476;DHT22;18929;48.008;10.882;2023-11-19T10:36:40;11.00;99.90
32476;DHT22;18929;48.008;10.882;2023-11-19T10:39:07;11.00;99.90
32476;DHT22;18929;48.008;10.882;2023-11-19T10:41:35;10.90;99.90
32476;DHT22;18929;48.008;10.882;2023-11-19T10:46:56;11.10;99.90
32476;DHT22;18929;48.008;10.882;2023-11-19T10:49:22;11.10;99.90
32476;DHT22;18929;48.008;10.882;2023-11-19T10:51:51;11.20;99.90
32476;DHT22;18929;48.008;10.882;2023-11-19T10:54:19;11.20;99.90
32476;DHT22;18929;48.008;10.882;2023-11-19T10:56:46;11.40;99.90
32476;DHT22;18929;48.008;10.882;2023-11-19T10:59:15;11.70;99.90
32476;DHT22;18929;48.008;10.882;2023-11-19T11:01:43;11.50;99.90
32476;DHT22;18929;48.008;10.882;2023-11-19T11:04:13;11.70;99.90
32476;DHT22;18929;48.008;10.882;2023-11-19T11:06:53;11.60;99.90
32476;DHT22;18929;48.008;10.882;2023-11-19T11:09:20;11.60;99.90
32476;DHT22;18929;48.008;10.882;2023-11-19T11:11:51;11.70;99.90
32476;DHT22;18929;48.008;10.882;2023-11-19T11:14:21;11.40;99.90
32476;DHT22;18929;48.008;10.882;2023-11-19T11:16:48;11.60;99.90
32476;DHT22;18929;48.008;10.882;2023-11-19T11:19:20;12.00;99.90
32476;DHT22;18929;48.008;10.882;2023-11-19T11:21:48;11.60;99.90
32476;DHT22;18929;48.008;10.882;2023-11-19T11:27:13;11.80;99.90
32476;DHT22;18929;48.008;10.882;2023-11-19T11:29:44;11.60;99.90
32476;DHT22;18929;48.008;10.882;2023-11-19T11:32:16;11.40;99.90
32476;DHT22;18929;48.008;10.882;2023-11-19T11:34:58;11.60;99.90
32476;DHT22;18929;48.008;10.882;2023-11-19T11:37:32;11.60;99.90
32476;DHT22;18929;48.008;10.882;2023-11-19T11:40:00;11.80;99.90
32476;DHT22;18929;48.008;10.882;2023-11-19T11:42:35;12.10;99.90
32476;DHT22;18929;48.008;10.882;2023-11-19T11:45:03;11.70;99.90
32476;DHT22;18929;48.008;10.882;2023-11-19T11:50:19;11.80;99.90
32476;DHT22;18929;48.008;10.882;2023-11-19T11:55:34;12.00;99.90
32476;DHT22;18929;48.008;10.882;2023-11-19T11:58:06;12.00;99.90
32476;DHT22;18929;48.008;10.882;2023-11-19T12:00:36;11.80;99.90
32476;DHT22;18929;48.008;10.882;2023-11-19T12:03:04;12.10;99.90
32476;DHT22;18929;48.008;10.882;2023-11-19T12:05:44;11.80;99.90
32476;DHT22;18929;48.008;10.882;2023-11-19T12:08:18;11.80;99.90
32476;DHT22;18929;48.008;10.882;2023-11-19T12:10:47;11.90;99.90
32476;DHT22;18929;48.008;10.882;2023-11-19T12:13:52;11.90;99.90
32476;DHT22;18929;48.008;10.882;2023-11-19T12:16:30;11.90;99.90
32476;DHT22;18929;48.008;10.882;2023-11-19T12:19:04;12.10;99.90
32476;DHT22;18929;48.008;10.882;2023-11-19T12:21:31;11.90;99.90
32476;DHT22;18929;48.008;10.882;2023-11-19T12:23:59;11.80;99.90
32476;DHT22;18929;48.008;10.882;2023-11-19T12:26:31;11.70;99.90
32476;DHT22;18929;48.008;10.882;2023-11-19T12:29:09;11.90;99.90
32476;DHT22;18929;48.008;10.882;2023-11-19T12:31:36;11.90;99.90
32476;DHT22;18929;48.008;10.882;2023-11-19T12:34:07;12.00;99.90
32476;DHT22;18929;48.008;10.882;2023-11-19T12:36:37;11.90;99.90
32476;DHT22;18929;48.008;10.882;2023-11-19T12:39:04;12.30;99.90
32476;DHT22;18929;48.008;10.882;2023-11-19T12:41:32;12.10;99.90
32476;DHT22;18929;48.008;10.882;2023-11-19T12:44:10;11.90;99.90
32476;DHT22;18929;48.008;10.882;2023-11-19T12:46:38;12.00;99.90
32476;DHT22;18929;48.008;10.882;2023-11-19T12:49:05;12.00;99.90
32476;DHT22;18929;48.008;10.882;2023-11-19T12:51:34;11.80;99.90
32476;DHT22;18929;48.008;10.882;2023-11-19T12:54:07;11.80;99.90
32476;DHT22;18929;48.008;10.882;2023-11-19T12:56:34;12.20;99.90
32476;DHT22;18929;48.008;10.882;2023-11-19T12:59:11;12.30;99.90
32476;DHT22;18929;48.008;10.882;2023-11-19T13:01:38;12.00;99.90
32476;DHT22;18929;48.008;10.882;2023-11-19T13:04:19;12.20;99.90
32476;DHT22;18929;48.008;10.882;2023-11-19T13:06:50;12.10;99.90
32476;DHT22;18929;48.008;10.882;2023-11-19T13:09:24;12.00;99.90
32476;DHT22;18929;48.008;10.882;2023-11-19T13:11:51;12.20;99.90
32476;DHT22;18929;48.008;10.882;2023-11-19T13:14:35;12.00;99.90
32476;DHT22;18929;48.008;10.882;2023-11-19T13:17:06;12.30;99.90
32476;DHT22;18929;48.008;10.882;2023-11-19T13:19:32;12.20;99.90
32476;DHT22;18929;48.008;10.882;2023-11-19T13:21:59;12.10;99.90
32476;DHT22;18929;48.008;10.882;2023-11-19T13:24:26;11.90;99.90
32476;DHT22;18929;48.008;10.882;2023-11-19T13:26:53;12.10;99.90
32476;DHT22;18929;48.008;10.882;2023-11-19T13:29:21;12.40;99.90
32476;DHT22;18929;48.008;10.882;2023-11-19T13:31:50;12.10;99.90
32476;DHT22;18929;48.008;10.882;2023-11-19T13:34:17;11.90;99.90
32476;DHT22;18929;48.008;10.882;2023-11-19T13:36:44;12.00;99.90
32476;DHT22;18929;48.008;10.882;2023-11-19T13:39:11;12.10;99.90
32476;DHT22;18929;48.008;10.882;2023-11-19T13:41:48;12.40;99.90
32476;DHT22;18929;48.008;10.882;2023-11-19T13:44:15;12.40;99.90
32476;DHT22;18929;48.008;10.882;2023-11-19T13:46:44;12.30;99.90
32476;DHT22;18929;48.008;10.882;2023-11-19T13:49:12;12.30;99.90
32476;DHT22;18929;48.008;10.882;2023-11-19T13:51:39;12.20;99.90
32476;DHT22;18929;48.008;10.882;2023-11-19T13:54:06;12.40;99.90
32476;DHT22;18929;48.008;10.882;2023-11-19T13:56:33;12.50;99.90
32476;DHT22;18929;48.008;10.882;2023-11-19T13:59:02;12.30;99.90
32476;DHT22;18929;48.008;10.882;2023-11-19T14:01:29;12.40;99.90
32476;DHT22;18929;48.008;10.882;2023-11-19T14:03:56;12.30;99.90
32476;DHT22;18929;48.008;10.882;2023-11-19T14:06:25;12.20;99.90
32476;DHT22;18929;48.008;10.882;2023-11-19T14:08:52;12.40;99.90
32476;DHT22;18929;48.008;10.882;2023-11-19T14:11:20;12.60;99.90
32476;DHT22;18929;48.008;10.882;2023-11-19T14:13:47;12.70;99.90
32476;DHT22;18929;48.008;10.882;2023-11-19T14:16:17;12.60;99.90
32476;DHT22;18929;48.008;10.882;2023-11-19T14:18:44;12.30;99.90
32476;DHT22;18929;48.008;10.882;2023-11-19T14:21:12;12.40;99.90
32476;DHT22;18929;48.008;10.882;2023-11-19T14:23:40;12.40;99.90
32476;DHT22;18929;48.008;10.882;2023-11-19T14:26:10;12.40;99.90
32476;DHT22;18929;48.008;10.882;2023-11-19T14:28:37;12.40;99.90
32476;DHT22;18929;48.008;10.882;2023-11-19T14:31:05;12.50;99.90
32476;DHT22;18929;48.008;10.882;2023-11-19T14:33:32;12.40;99.90
32476;DHT22;18929;48.008;10.882;2023-11-19T14:36:01;12.30;99.90
32476;DHT22;18929;48.008;10.882;2023-11-19T14:38:30;12.30;99.90
32476;DHT22;18929;48.008;10.882;2023-11-19T14:40:59;12.30;99.90
32476;DHT22;18929;48.008;10.882;2023-11-19T14:43:28;12.50;99.90
32476;DHT22;18929;48.008;10.882;2023-11-19T14:45:55;12.70;99.90
32476;DHT22;18929;48.008;10.882;2023-11-19T14:48:22;12.30;99.90
32476;DHT22;18929;48.008;10.882;2023-11-19T14:50:52;12.40;99.90
32476;DHT22;18929;48.008;10.882;2023-11-19T14:53:30;12.30;99.90
32476;DHT22;18929;48.008;10.882;2023-11-19T14:55:57;12.10;99.90
32476;DHT22;18929;48.008;10.882;2023-11-19T14:58:25;12.10;99.90
32476;DHT22;18929;48.008;10.882;2023-11-19T15:01:01;12.20;99.90
32476;DHT22;18929;48.008;10.882;2023-11-19T15:03:30;12.20;99.90
32476;DHT22;18929;48.008;10.882;2023-11-19T15:05:56;12.00;99.90
32476;DHT22;18929;48.008;10.882;2023-11-19T15:08:23;11.90;99.90
32476;DHT22;18929;48.008;10.882;2023-11-19T15:10:50;11.80;99.90
32476;DHT22;18929;48.008;10.882;2023-11-19T15:13:18;12.00;99.90
32476;DHT22;18929;48.008;10.882;2023-11-19T15:15:47;11.90;99.90
32476;DHT22;18929;48.008;10.882;2023-11-19T15:18:13;11.70;99.90
32476;DHT22;18929;48.008;10.882;2023-11-19T15:20:40;11.70;99.90
32476;DHT22;18929;48.008;10.882;2023-11-19T15:23:13;11.80;99.90
32476;DHT22;18929;48.008;10.882;2023-11-19T15:25:40;11.90;99.90
32476;DHT22;18929;48.008;10.882;2023-11-19T15:28:07;11.90;99.90
32476;DHT22;18929;48.008;10.882;2023-11-19T15:30:36;11.90;99.90
32476;DHT22;18929;48.008;10.882;2023-11-19T15:33:04;11.90;99.90
32476;DHT22;18929;48.008;10.882;2023-11-19T15:35:31;11.80;99.90
32476;DHT22;18929;48.008;10.882;2023-11-19T15:37:58;11.80;99.90
32476;DHT22;18929;48.008;10.882;2023-11-19T15:40:24;11.90;99.90
32476;DHT22;18929;48.008;10.882;2023-11-19T15:42:52;11.80;99.90
32476;DHT22;18929;48.008;10.882;2023-11-19T15:45:20;11.80;99.90
32476;DHT22;18929;48.008;10.882;2023-11-19T15:47:49;11.90;99.90
32476;DHT22;18929;48.008;10.882;2023-11-19T15:50:18;12.10;99.90
32476;DHT22;18929;48.008;10.882;2023-11-19T15:52:44;12.10;99.90
32476;DHT22;18929;48.008;10.882;2023-11-19T15:55:11;11.90;99.90
32476;DHT22;18929;48.008;10.882;2023-11-19T15:57:38;11.80;99.90
32476;DHT22;18929;48.008;10.882;2023-11-19T16:00:05;11.60;99.90
32476;DHT22;18929;48.008;10.882;2023-11-19T16:02:36;11.70;99.90
32476;DHT22;18929;48.008;10.882;2023-11-19T16:05:03;11.50;99.90
32476;DHT22;18929;48.008;10.882;2023-11-19T16:07:34;11.60;99.90
32476;DHT22;18929;48.008;10.882;2023-11-19T16:10:01;11.70;99.90
32476;DHT22;18929;48.008;10.882;2023-11-19T16:12:30;11.80;99.90
32476;DHT22;18929;48.008;10.882;2023-11-19T16:14:56;11.90;99.90
32476;DHT22;18929;48.008;10.882;2023-11-19T16:17:23;11.90;99.90
32476;DHT22;18929;48.008;10.882;2023-11-19T16:19:50;12.00;99.90